Time;durP1;ratioP1;P1;durP2;ratioP2;P2;SDS_P1;SDS_P2;PMS_P1;PMS_P2;Temp;Humidity;BMP_temperature;BMP_pressure;BME280_temperature;BME280_humidity;BME280_pressure;Samples;Min_cycle;Max_cycle;Signal;HPM_P1;HPM_P2
2023/10/21 08:49:20;;;;;;;5.22;2.72;;;;;;;;;;5769068;23;20136;-69
2023/10/21 08:51:49;;;;;;;5.72;2.70;;;;;;;;;;4992574;28;20440;-70
2023/10/21 08:54:17;;;;;;;3.70;2.47;;;;;;;;;;4992701;28;20026;-70
2023/10/21 08:56:43;;;;;;;1.98;1.88;;;;;;;;;;4992764;28;20023;-68
2023/10/21 08:59:08;;;;;;;3.03;2.08;;;;;;;;;;4992534;28;20081;-70
2023/10/21 09:01:38;;;;;;;3.80;1.90;;;;;;;;;;4989625;28;20026;-68
2023/10/21 09:04:04;;;;;;;2.85;2.10;;;;;;;;;;4982918;28;20077;-70
2023/10/21 09:06:30;;;;;;;2.28;2.08;;;;;;;;;;4992517;28;20037;-72
2023/10/21 09:08:55;;;;;;;4.65;2.30;;;;;;;;;;4992091;28;20106;-71
2023/10/21 09:11:25;;;;;;;4.03;2.20;;;;;;;;;;4992493;28;20030;-70
2023/10/21 09:13:52;;;;;;;4.82;1.95;;;;;;;;;;4992976;28;20050;-72
2023/10/21 09:16:33;;;;;;;3.25;2.20;;;;;;;;;;4992604;28;20026;-70
2023/10/21 09:19:01;;;;;;;4.38;2.67;;;;;;;;;;4992768;28;20406;-71
2023/10/21 09:21:34;;;;;;;4.25;2.05;;;;;;;;;;4992399;28;20085;-72
2023/10/21 09:24:10;;;;;;;3.38;2.08;;;;;;;;;;4992048;28;20054;-70
2023/10/21 09:26:48;;;;;;;4.70;2.25;;;;;;;;;;4990035;28;20533;-70
2023/10/21 09:29:19;;;;;;;2.28;2.08;;;;;;;;;;4990160;28;20034;-72
2023/10/21 09:31:51;;;;;;;2.45;2.25;;;;;;;;;;4992523;28;20026;-71
2023/10/21 09:34:32;;;;;;;3.30;1.90;;;;;;;;;;4992702;28;20034;-71
2023/10/21 09:37:03;;;;;;;3.70;2.70;;;;;;;;;;4994210;28;20085;-71
2023/10/21 09:39:38;;;;;;;4.75;2.05;;;;;;;;;;4995894;28;20117;-71
2023/10/21 09:42:05;;;;;;;3.97;2.63;;;;;;;;;;4995854;28;20030;-69
2023/10/21 09:44:31;;;;;;;3.08;2.00;;;;;;;;;;4995940;28;20028;-69
2023/10/21 09:47:00;;;;;;;2.28;2.08;;;;;;;;;;4995927;28;20098;-69
2023/10/21 09:49:27;;;;;;;4.20;2.40;;;;;;;;;;4995627;28;20705;-69
2023/10/21 09:52:04;;;;;;;3.70;2.30;;;;;;;;;;4995814;28;20037;-68
2023/10/21 09:54:41;;;;;;;2.33;2.08;;;;;;;;;;4995511;28;20023;-68
2023/10/21 09:57:13;;;;;;;2.40;2.05;;;;;;;;;;4994686;28;20121;-68
2023/10/21 09:59:40;;;;;;;2.42;1.80;;;;;;;;;;4994122;28;20022;-70
2023/10/21 10:02:09;;;;;;;2.83;1.95;;;;;;;;;;5002061;28;20022;-70
2023/10/21 10:04:38;;;;;;;3.10;2.13;;;;;;;;;;5003026;28;20019;-70
2023/10/21 10:07:07;;;;;;;2.10;1.90;;;;;;;;;;4996299;28;20015;-69
2023/10/21 10:09:36;;;;;;;2.80;2.20;;;;;;;;;;5001953;28;20042;-69
2023/10/21 10:12:06;;;;;;;2.67;2.10;;;;;;;;;;5003905;28;20355;-68
2023/10/21 10:14:33;;;;;;;2.67;2.10;;;;;;;;;;5002754;28;20026;-68
2023/10/21 10:17:00;;;;;;;2.58;2.10;;;;;;;;;;5003776;28;20022;-67
2023/10/21 10:19:39;;;;;;;2.65;2.20;;;;;;;;;;5004389;28;20445;-68
2023/10/21 10:22:18;;;;;;;3.58;2.15;;;;;;;;;;5002357;28;20034;-69
2023/10/21 10:25:05;;;;;;;3.65;2.13;;;;;;;;;;5003591;28;20026;-68
2023/10/21 10:27:41;;;;;;;3.58;2.33;;;;;;;;;;5004716;28;20033;-67
2023/10/21 10:30:32;;;;;;;2.97;2.03;;;;;;;;;;5002911;28;20113;-66
2023/10/21 10:33:06;;;;;;;3.83;2.03;;;;;;;;;;5002840;28;20033;-69
2023/10/21 10:35:32;;;;;;;3.72;2.13;;;;;;;;;;5002094;28;20023;-67
2023/10/21 10:38:02;;;;;;;2.20;1.92;;;;;;;;;;5001824;28;20093;-68
2023/10/21 10:40:40;;;;;;;2.47;1.90;;;;;;;;;;5000107;28;20045;-67
2023/10/21 10:43:10;;;;;;;2.10;1.70;;;;;;;;;;5001272;28;20065;-67
2023/10/21 10:45:36;;;;;;;;;;;;;;;;;;5004063;28;20022;-69
2023/10/21 10:48:03;;;;;;;2.47;1.80;;;;;;;;;;4996648;28;19960;-69
2023/10/21 10:50:31;;;;;;;2.78;1.95;;;;;;;;;;4994541;28;20046;-69
2023/10/21 10:52:59;;;;;;;2.25;1.95;;;;;;;;;;4994608;28;20030;-68
2023/10/21 10:55:25;;;;;;;2.35;1.90;;;;;;;;;;4994633;28;20026;-67
2023/10/21 10:57:54;;;;;;;2.45;1.95;;;;;;;;;;4993984;28;20037;-70
2023/10/21 11:00:22;;;;;;;4.45;2.05;;;;;;;;;;4994417;28;20030;-70
2023/10/21 11:02:49;;;;;;;4.03;1.98;;;;;;;;;;4994662;28;20678;-66
2023/10/21 11:05:21;;;;;;;3.45;2.30;;;;;;;;;;4994733;28;20053;-66
2023/10/21 11:07:49;;;;;;;3.15;2.22;;;;;;;;;;4994178;28;20034;-66
2023/10/21 11:10:23;;;;;;;4.05;2.40;;;;;;;;;;4991299;28;20121;-67
2023/10/21 11:12:52;;;;;;;4.05;2.72;;;;;;;;;;4992515;28;20430;-66
2023/10/21 11:15:19;;;;;;;4.70;2.75;;;;;;;;;;4992897;28;20360;-67
2023/10/21 11:17:48;;;;;;;6.45;3.60;;;;;;;;;;4993945;28;20018;-67
2023/10/21 11:20:15;;;;;;;4.57;3.70;;;;;;;;;;4994122;28;20387;-66
2023/10/21 11:22:42;;;;;;;3.92;3.47;;;;;;;;;;4993881;28;20023;-66
2023/10/21 11:25:08;;;;;;;5.63;2.90;;;;;;;;;;4993940;28;20524;-66
2023/10/21 11:27:35;;;;;;;6.22;3.38;;;;;;;;;;4994281;28;20054;-66
2023/10/21 11:30:01;;;;;;;4.20;2.75;;;;;;;;;;4993985;28;20037;-66
2023/10/21 11:32:31;;;;;;;5.35;2.85;;;;;;;;;;4994246;28;20026;-66
2023/10/21 11:35:11;;;;;;;4.57;2.90;;;;;;;;;;4993912;28;20112;-66
2023/10/21 11:37:39;;;;;;;3.75;3.00;;;;;;;;;;4993894;28;20061;-65
2023/10/21 11:40:09;;;;;;;5.63;3.47;;;;;;;;;;4994070;28;20037;-66
2023/10/21 11:42:35;;;;;;;;;;;;;;;;;;4992243;28;20022;-65
2023/10/21 11:45:01;;;;;;;4.40;2.88;;;;;;;;;;4993768;28;19914;-66
2023/10/21 11:47:28;;;;;;;5.07;3.33;;;;;;;;;;4992896;28;20545;-65
2023/10/21 11:49:54;;;;;;;3.97;3.17;;;;;;;;;;4993548;28;20132;-66
2023/10/21 11:52:21;;;;;;;5.38;3.30;;;;;;;;;;4993640;28;20030;-66
2023/10/21 11:55:20;;;;;;;5.60;3.10;;;;;;;;;;4993598;28;20105;-65
2023/10/21 12:37:20;;;;;;;3.92;2.50;;;;;;;;;;4990965;28;20110;-64
2023/10/21 12:42:43;;;;;;;6.72;2.20;;;;;;;;;;4991452;28;20140;-64
2023/10/21 12:45:18;;;;;;;6.05;2.45;;;;;;;;;;4984658;28;20036;-64
2023/10/21 12:47:44;;;;;;;5.15;2.80;;;;;;;;;;4991650;28;20033;-63
2023/10/21 12:50:12;;;;;;;6.53;2.38;;;;;;;;;;4991175;28;20057;-64
2023/10/21 12:52:39;;;;;;;6.80;2.85;;;;;;;;;;4990967;28;20733;-63
2023/10/21 12:55:10;;;;;;;9.77;3.88;;;;;;;;;;4991200;28;20026;-63
2023/10/21 12:57:36;;;;;;;10.13;3.53;;;;;;;;;;4991275;28;20038;-64
2023/10/21 13:00:03;;;;;;;10.52;2.97;;;;;;;;;;4991104;28;20117;-63
2023/10/21 13:02:29;;;;;;;13.63;3.03;;;;;;;;;;4991151;28;20037;-63
2023/10/21 13:04:55;;;;;;;17.75;3.40;;;;;;;;;;4991164;28;20110;-68
2023/10/21 13:07:20;;;;;;;27.92;4.22;;;;;;;;;;4991148;28;20077;-62
2023/10/21 13:09:46;;;;;;;13.25;3.22;;;;;;;;;;4990996;28;20081;-63
2023/10/21 13:12:14;;;;;;;12.30;3.03;;;;;;;;;;4993307;28;20065;-64
2023/10/21 13:14:40;;;;;;;15.05;2.95;;;;;;;;;;4995023;28;20149;-64
2023/10/21 13:17:08;;;;;;;11.10;2.80;;;;;;;;;;4994828;28;20460;-64
2023/10/21 13:19:34;;;;;;;18.85;3.45;;;;;;;;;;4995119;28;20037;-64
2023/10/21 13:22:00;;;;;;;21.73;3.83;;;;;;;;;;4995071;28;20057;-63
2023/10/21 13:24:25;;;;;;;16.25;3.38;;;;;;;;;;4994692;28;20447;-63
2023/10/21 13:26:51;;;;;;;20.75;4.10;;;;;;;;;;4994833;28;20117;-64
2023/10/21 13:29:17;;;;;;;12.15;3.15;;;;;;;;;;4994704;28;20042;-63
2023/10/21 13:31:42;;;;;;;22.85;4.28;;;;;;;;;;4994579;28;20053;-63
2023/10/21 13:34:08;;;;;;;5.03;2.17;;;;;;;;;;4994908;28;20030;-64
2023/10/21 13:36:34;;;;;;;15.05;3.38;;;;;;;;;;4994543;28;20535;-63
2023/10/21 13:41:55;;;;;;;5.93;2.33;;;;;;;;;;4985283;28;20088;-64
2023/10/21 13:44:20;;;;;;;8.50;2.30;;;;;;;;;;4994447;28;20035;-73
2023/10/21 13:46:46;;;;;;;7.90;2.65;;;;;;;;;;4994538;28;20376;-64
2023/10/21 13:49:15;;;;;;;9.63;2.40;;;;;;;;;;4994079;28;20073;-63
2023/10/21 13:51:45;;;;;;;9.70;1.67;;;;;;;;;;4994132;28;20061;-64
2023/10/21 13:54:13;;;;;;;14.40;2.40;;;;;;;;;;4994204;28;20030;-72
2023/10/21 13:56:39;;;;;;;11.63;2.22;;;;;;;;;;4994115;28;20062;-63
2023/10/21 13:59:15;;;;;;;5.25;1.75;;;;;;;;;;4993990;28;20778;-64
2023/10/21 14:01:42;;;;;;;8.85;2.05;;;;;;;;;;4993301;28;20121;-64
2023/10/21 14:04:12;;;;;;;6.70;2.13;;;;;;;;;;4992669;28;20027;-64
2023/10/21 14:06:39;;;;;;;5.82;1.80;;;;;;;;;;4993940;28;20031;-65
2023/10/21 14:09:05;;;;;;;8.95;1.77;;;;;;;;;;5002312;28;20044;-69
2023/10/21 14:11:33;;;;;;;4.78;1.88;;;;;;;;;;5013781;28;20060;-62
2023/10/21 14:13:59;;;;;;;10.05;2.53;;;;;;;;;;5013565;28;20025;-63
2023/10/21 14:16:24;;;;;;;4.95;1.92;;;;;;;;;;5013475;28;20434;-63
2023/10/21 14:18:50;;;;;;;5.68;1.70;;;;;;;;;;5013308;28;20033;-64
2023/10/21 14:21:15;;;;;;;8.35;2.10;;;;;;;;;;5013258;28;20064;-63
2023/10/21 14:23:41;;;;;;;9.10;1.67;;;;;;;;;;5011576;28;20072;-64
2023/10/21 14:26:07;;;;;;;4.63;1.75;;;;;;;;;;5013297;28;20033;-63
2023/10/21 14:28:32;;;;;;;8.27;2.47;;;;;;;;;;5013023;28;20124;-63
2023/10/21 14:31:00;;;;;;;4.95;1.75;;;;;;;;;;5013155;28;20129;-64
2023/10/21 14:33:27;;;;;;;5.38;1.75;;;;;;;;;;5013060;28;20030;-66
2023/10/21 14:35:55;;;;;;;6.85;1.98;;;;;;;;;;5012879;28;20041;-72
2023/10/21 14:38:23;;;;;;;13.18;2.78;;;;;;;;;;5012941;28;20656;-66
2023/10/21 14:40:48;;;;;;;12.48;2.15;;;;;;;;;;5011582;28;20029;-65
2023/10/21 14:43:15;;;;;;;22.48;2.15;;;;;;;;;;5012880;28;20022;-63
2023/10/21 14:45:43;;;;;;;9.23;2.35;;;;;;;;;;5013098;28;20064;-66
2023/10/21 14:48:09;;;;;;;21.35;4.20;;;;;;;;;;5013095;28;20079;-62
2023/10/21 14:50:43;;;;;;;35.33;10.40;;;;;;;;;;5003712;28;20129;-73
2023/10/21 14:53:10;;;;;;;51.20;19.13;;;;;;;;;;4993140;28;20041;-64
2023/10/21 14:55:39;;;;;;;39.47;17.05;;;;;;;;;;4993406;28;20033;-67
2023/10/21 14:58:07;;;;;;;30.92;10.25;;;;;;;;;;4993035;28;20032;-65
2023/10/21 15:00:33;;;;;;;56.10;15.82;;;;;;;;;;4992969;28;20361;-65
2023/10/21 15:02:59;;;;;;;53.30;14.73;;;;;;;;;;4992918;28;20030;-63
2023/10/21 15:05:25;;;;;;;84.97;23.67;;;;;;;;;;4993056;28;20037;-71
2023/10/21 15:07:50;;;;;;;64.47;18.98;;;;;;;;;;4992778;28;20034;-73
2023/10/21 15:10:16;;;;;;;76.97;22.65;;;;;;;;;;4993112;28;20072;-72
2023/10/21 15:12:46;;;;;;;34.35;11.35;;;;;;;;;;4992632;28;20031;-72
2023/10/21 15:15:13;;;;;;;29.25;8.40;;;;;;;;;;4993143;28;20058;-73
2023/10/21 15:17:40;;;;;;;26.63;8.98;;;;;;;;;;4992355;28;20533;-73
2023/10/21 15:20:08;;;;;;;42.75;12.93;;;;;;;;;;4991251;28;20026;-72
2023/10/21 15:22:34;;;;;;;35.70;10.25;;;;;;;;;;4992715;28;20386;-72
2023/10/21 15:25:00;;;;;;;23.98;6.28;;;;;;;;;;4992468;28;20033;-72
2023/10/21 15:27:26;;;;;;;41.15;10.77;;;;;;;;;;4995055;28;20030;-73
2023/10/21 15:29:54;;;;;;;39.55;11.65;;;;;;;;;;5000928;28;20062;-72
2023/10/21 15:32:21;;;;;;;36.42;11.88;;;;;;;;;;4998764;28;20026;-72
2023/10/21 15:34:48;;;;;;;35.13;11.05;;;;;;;;;;4991577;28;20430;-72
2023/10/21 15:37:20;;;;;;;22.42;7.57;;;;;;;;;;4992474;28;20122;-65
2023/10/21 15:39:49;;;;;;;16.38;6.65;;;;;;;;;;4992287;28;20033;-64
2023/10/21 15:42:14;;;;;;;13.88;5.57;;;;;;;;;;4992894;28;20030;-63
2023/10/21 15:44:40;;;;;;;19.17;7.13;;;;;;;;;;4992708;28;20030;-64
2023/10/21 15:47:07;;;;;;;17.25;5.53;;;;;;;;;;4994062;28;20034;-65
2023/10/21 15:49:35;;;;;;;26.67;7.40;;;;;;;;;;4993059;28;20116;-64
2023/10/21 15:52:04;;;;;;;32.88;11.32;;;;;;;;;;4992493;28;20026;-64
2023/10/21 15:54:29;;;;;;;28.75;8.48;;;;;;;;;;4992857;28;20034;-64
2023/10/21 15:56:56;;;;;;;30.42;6.45;;;;;;;;;;4993880;28;20084;-65
2023/10/21 15:59:21;;;;;;;23.98;5.45;;;;;;;;;;4993313;28;20027;-64
2023/10/21 16:01:47;;;;;;;27.15;6.88;;;;;;;;;;4993128;28;20024;-65
2023/10/21 16:04:13;;;;;;;19.85;5.32;;;;;;;;;;4992037;28;20085;-63
2023/10/21 16:06:38;;;;;;;15.57;5.75;;;;;;;;;;4992443;28;20030;-63
2023/10/21 16:09:05;;;;;;;19.80;5.10;;;;;;;;;;4992039;28;20472;-64
2023/10/21 16:11:31;;;;;;;16.50;4.20;;;;;;;;;;4992007;28;20514;-63
2023/10/21 16:13:56;;;;;;;17.33;4.78;;;;;;;;;;4992156;28;20034;-71
2023/10/21 16:16:22;;;;;;;20.50;5.20;;;;;;;;;;4992068;28;20105;-63
2023/10/21 16:18:48;;;;;;;15.27;5.75;;;;;;;;;;4991939;28;20030;-64
2023/10/21 16:21:14;;;;;;;16.85;5.78;;;;;;;;;;4992066;28;20081;-64
2023/10/21 16:23:44;;;;;;;18.05;6.68;;;;;;;;;;4991597;28;20837;-63
2023/10/21 16:26:10;;;;;;;11.13;4.97;;;;;;;;;;4991889;28;20117;-66
2023/10/21 16:28:35;;;;;;;13.05;4.90;;;;;;;;;;4991839;28;20114;-63
2023/10/21 16:31:04;;;;;;;14.05;5.53;;;;;;;;;;4991885;28;20030;-64
2023/10/21 16:33:30;;;;;;;14.82;4.55;;;;;;;;;;4991592;28;20529;-64
2023/10/21 16:35:57;;;;;;;23.13;5.00;;;;;;;;;;4991782;28;20041;-64
2023/10/21 16:38:24;;;;;;;12.30;4.25;;;;;;;;;;4991620;28;20022;-64
2023/10/21 16:40:51;;;;;;;10.85;4.13;;;;;;;;;;4991613;28;20490;-63
2023/10/21 16:43:16;;;;;;;14.30;4.78;;;;;;;;;;4991441;28;20038;-64
2023/10/21 16:45:43;;;;;;;17.65;5.05;;;;;;;;;;4992785;28;20037;-64
2023/10/21 16:48:09;;;;;;;11.10;4.15;;;;;;;;;;4996250;28;20093;-69
2023/10/21 16:50:35;;;;;;;14.75;3.92;;;;;;;;;;4995128;28;20053;-64
2023/10/21 16:53:03;;;;;;;11.35;3.60;;;;;;;;;;4995396;28;20427;-64
2023/10/21 16:55:29;;;;;;;11.32;3.10;;;;;;;;;;4995273;28;20027;-63
2023/10/21 16:57:55;;;;;;;16.45;3.58;;;;;;;;;;4995237;28;20053;-72
2023/10/21 17:00:20;;;;;;;9.63;3.22;;;;;;;;;;4995267;28;20026;-64
2023/10/21 17:02:46;;;;;;;11.32;2.92;;;;;;;;;;4995441;28;20026;-63
2023/10/21 17:05:13;;;;;;;9.18;3.10;;;;;;;;;;4995532;28;20475;-75
2023/10/21 17:07:39;;;;;;;10.38;3.47;;;;;;;;;;4995731;28;20113;-63
2023/10/21 17:10:07;;;;;;;13.82;3.60;;;;;;;;;;4995032;28;20030;-64
2023/10/21 17:12:33;;;;;;;9.20;2.95;;;;;;;;;;4994964;28;20527;-64
2023/10/21 17:14:59;;;;;;;12.35;3.28;;;;;;;;;;4994991;28;20089;-64
2023/10/21 17:17:25;;;;;;;8.75;2.95;;;;;;;;;;4993508;28;20030;-69
2023/10/21 17:19:51;;;;;;;11.02;3.30;;;;;;;;;;4995152;28;20057;-64
2023/10/21 17:22:17;;;;;;;7.57;2.80;;;;;;;;;;4995012;28;20023;-63
2023/10/21 17:24:42;;;;;;;11.05;2.95;;;;;;;;;;4995134;28;20585;-64
2023/10/21 17:27:08;;;;;;;10.10;2.80;;;;;;;;;;4994665;28;20034;-64
2023/10/21 17:29:36;;;;;;;13.25;2.90;;;;;;;;;;4994900;28;20026;-63
2023/10/21 17:32:03;;;;;;;10.98;3.30;;;;;;;;;;4994718;28;20726;-71
2023/10/21 17:34:29;;;;;;;7.35;2.90;;;;;;;;;;4993047;28;20093;-67
2023/10/21 17:36:55;;;;;;;11.77;3.03;;;;;;;;;;4994805;28;20594;-64
2023/10/21 17:39:21;;;;;;;9.02;3.50;;;;;;;;;;4994900;28;20129;-66
2023/10/21 17:41:46;;;;;;;12.13;2.75;;;;;;;;;;4994458;28;20400;-62
2023/10/21 17:44:12;;;;;;;11.15;3.45;;;;;;;;;;4994738;28;20088;-63
2023/10/21 17:46:37;;;;;;;12.52;2.75;;;;;;;;;;4994699;28;20487;-64
2023/10/21 17:49:04;;;;;;;9.50;3.05;;;;;;;;;;4994076;28;20561;-63
2023/10/21 17:51:30;;;;;;;10.25;3.10;;;;;;;;;;4994311;28;20114;-64
2023/10/21 17:53:55;;;;;;;10.10;3.42;;;;;;;;;;4994537;28;20109;-64
2023/10/21 17:56:21;;;;;;;8.13;2.50;;;;;;;;;;4994452;28;20533;-63
2023/10/21 17:58:48;;;;;;;9.10;2.35;;;;;;;;;;4993554;28;20490;-62
2023/10/21 18:01:13;;;;;;;10.20;2.80;;;;;;;;;;4994025;28;20105;-62
2023/10/21 18:03:39;;;;;;;10.20;2.97;;;;;;;;;;4994055;28;20118;-64
2023/10/21 18:06:05;;;;;;;9.98;3.00;;;;;;;;;;4994283;28;20030;-63
2023/10/21 18:08:30;;;;;;;11.10;2.90;;;;;;;;;;4993980;28;20027;-72
2023/10/21 18:10:56;;;;;;;10.65;2.40;;;;;;;;;;4993963;28;20034;-64
2023/10/21 18:13:21;;;;;;;7.50;2.45;;;;;;;;;;4994104;28;20109;-64
2023/10/21 18:15:48;;;;;;;11.52;2.90;;;;;;;;;;4993838;28;20026;-64
2023/10/21 18:18:13;;;;;;;8.85;2.97;;;;;;;;;;4994059;28;20399;-66
2023/10/21 18:20:40;;;;;;;11.60;3.67;;;;;;;;;;4994057;28;20026;-63
2023/10/21 18:23:05;;;;;;;8.80;3.22;;;;;;;;;;4993627;28;20037;-64
2023/10/21 18:25:31;;;;;;;10.57;3.15;;;;;;;;;;4994033;28;20034;-63
2023/10/21 18:27:58;;;;;;;9.38;3.28;;;;;;;;;;4993649;28;20038;-63
2023/10/21 18:30:24;;;;;;;13.45;3.10;;;;;;;;;;4993531;28;20034;-63
2023/10/21 18:32:49;;;;;;;10.63;3.50;;;;;;;;;;4993538;28;20365;-68
2023/10/21 18:35:15;;;;;;;11.98;4.15;;;;;;;;;;4993496;28;20068;-64
2023/10/21 18:37:43;;;;;;;14.18;3.33;;;;;;;;;;4993377;28;20467;-63
2023/10/21 18:40:09;;;;;;;7.38;3.80;;;;;;;;;;4993211;28;20069;-62
2023/10/21 18:42:35;;;;;;;10.52;3.72;;;;;;;;;;4993447;28;20050;-63
2023/10/21 18:45:01;;;;;;;9.73;3.40;;;;;;;;;;4993260;28;20033;-64
2023/10/21 18:47:27;;;;;;;7.15;3.22;;;;;;;;;;4993244;28;20030;-63
2023/10/21 18:49:52;;;;;;;7.80;3.78;;;;;;;;;;4992936;28;20050;-64
2023/10/21 18:52:19;;;;;;;7.55;3.15;;;;;;;;;;4993172;28;20046;-62
2023/10/21 18:54:46;;;;;;;9.52;3.30;;;;;;;;;;4993032;28;20031;-66
2023/10/21 18:57:13;;;;;;;5.30;3.28;;;;;;;;;;4993313;28;20038;-66
2023/10/21 18:59:39;;;;;;;9.70;3.58;;;;;;;;;;4992867;28;20041;-67
2023/10/21 19:02:07;;;;;;;7.25;3.53;;;;;;;;;;4992972;28;20022;-65
2023/10/21 19:04:33;;;;;;;9.50;3.53;;;;;;;;;;4992821;28;20035;-70
2023/10/21 19:06:59;;;;;;;8.45;3.38;;;;;;;;;;4992768;28;20030;-70
2023/10/21 19:09:25;;;;;;;6.22;3.20;;;;;;;;;;4991982;28;20030;-73
2023/10/21 19:11:51;;;;;;;9.32;3.63;;;;;;;;;;4993048;28;20033;-66
2023/10/21 19:14:17;;;;;;;8.43;3.35;;;;;;;;;;4982805;28;20030;-66
2023/10/21 19:16:42;;;;;;;7.47;3.60;;;;;;;;;;4991398;28;20022;-65
2023/10/21 19:19:09;;;;;;;7.55;4.45;;;;;;;;;;4991795;28;20391;-68
2023/10/21 19:21:34;;;;;;;7.50;4.28;;;;;;;;;;4991557;28;20076;-66
2023/10/21 19:24:00;;;;;;;7.32;3.90;;;;;;;;;;4991763;28;20026;-70
2023/10/21 19:26:26;;;;;;;11.40;4.25;;;;;;;;;;4991724;28;20069;-66
2023/10/21 19:28:51;;;;;;;8.95;3.58;;;;;;;;;;4992367;28;20026;-65
2023/10/21 19:31:18;;;;;;;13.55;3.58;;;;;;;;;;4992685;28;20118;-74
2023/10/21 19:33:44;;;;;;;6.20;4.13;;;;;;;;;;4992331;28;20026;-68
2023/10/21 19:36:11;;;;;;;6.60;3.22;;;;;;;;;;4992684;28;20084;-65
2023/10/21 19:38:39;;;;;;;6.38;3.72;;;;;;;;;;4992229;28;20034;-65
2023/10/21 19:41:10;;;;;;;7.88;4.18;;;;;;;;;;4992488;28;20041;-66
2023/10/21 19:43:35;;;;;;;7.53;3.90;;;;;;;;;;4992470;28;20476;-65
2023/10/21 19:46:02;;;;;;;9.63;3.40;;;;;;;;;;4992252;28;20049;-73
2023/10/21 19:48:28;;;;;;;5.95;3.20;;;;;;;;;;4992092;28;20103;-72
2023/10/21 19:50:54;;;;;;;9.68;3.80;;;;;;;;;;4991840;28;20081;-66
2023/10/21 19:53:20;;;;;;;5.47;3.15;;;;;;;;;;4992113;28;20034;-75
2023/10/21 19:55:55;;;;;;;7.05;3.25;;;;;;;;;;4992321;28;20030;-66
2023/10/21 19:58:26;;;;;;;12.93;3.92;;;;;;;;;;4992078;28;20026;-64
2023/10/21 20:00:52;;;;;;;8.10;3.63;;;;;;;;;;4990633;28;20537;-64
2023/10/21 20:03:18;;;;;;;8.00;3.40;;;;;;;;;;4991931;28;20034;-64
2023/10/21 20:05:44;;;;;;;8.18;3.97;;;;;;;;;;4991926;28;20035;-65
2023/10/21 20:08:10;;;;;;;7.03;3.58;;;;;;;;;;4992088;28;20041;-62
2023/10/21 20:10:36;;;;;;;5.63;3.58;;;;;;;;;;4991653;28;20034;-63
2023/10/21 20:13:01;;;;;;;7.10;3.97;;;;;;;;;;4991870;28;20103;-63
2023/10/21 20:15:27;;;;;;;11.77;3.63;;;;;;;;;;4992035;28;20041;-63
2023/10/21 20:17:52;;;;;;;10.25;3.65;;;;;;;;;;4991841;28;20125;-63
2023/10/21 20:20:18;;;;;;;9.63;3.53;;;;;;;;;;4991308;28;20057;-63
2023/10/21 20:22:44;;;;;;;8.55;3.67;;;;;;;;;;4991494;28;20082;-63
2023/10/21 20:25:10;;;;;;;5.47;2.92;;;;;;;;;;4991642;28;20440;-70
2023/10/21 20:27:36;;;;;;;9.57;3.10;;;;;;;;;;4990187;28;20034;-71
2023/10/21 20:30:03;;;;;;;8.20;3.80;;;;;;;;;;4991438;28;20045;-63
2023/10/21 20:32:29;;;;;;;7.13;3.50;;;;;;;;;;4991598;28;20536;-62
2023/10/21 20:34:55;;;;;;;6.30;3.50;;;;;;;;;;4991558;28;20203;-64
2023/10/21 20:37:20;;;;;;;6.68;3.63;;;;;;;;;;4991755;28;20074;-64
2023/10/21 20:39:47;;;;;;;9.15;3.40;;;;;;;;;;4991692;28;20063;-63
2023/10/21 20:42:15;;;;;;;16.77;3.50;;;;;;;;;;4991334;28;20054;-63
2023/10/21 20:44:40;;;;;;;10.07;3.20;;;;;;;;;;4991674;28;20038;-64
2023/10/21 20:47:06;;;;;;;7.88;2.83;;;;;;;;;;4991448;28;20034;-64
2023/10/21 20:49:32;;;;;;;9.15;3.00;;;;;;;;;;4990797;28;20052;-66
2023/10/21 20:52:03;;;;;;;13.60;3.38;;;;;;;;;;4991331;28;20042;-63
2023/10/21 20:54:29;;;;;;;9.30;3.35;;;;;;;;;;4991418;28;20073;-63
2023/10/21 20:56:54;;;;;;;9.13;3.05;;;;;;;;;;4991648;28;20026;-64
2023/10/21 20:59:20;;;;;;;10.68;3.00;;;;;;;;;;4991295;28;20030;-64
2023/10/21 21:01:45;;;;;;;11.90;3.08;;;;;;;;;;4991296;28;20438;-64
2023/10/21 21:04:11;;;;;;;5.25;2.50;;;;;;;;;;4991295;28;20031;-63
2023/10/21 21:06:38;;;;;;;9.27;2.78;;;;;;;;;;4991480;28;20022;-64
2023/10/21 21:09:05;;;;;;;9.40;2.92;;;;;;;;;;4991181;28;20064;-65
2023/10/21 21:11:31;;;;;;;8.32;2.97;;;;;;;;;;4989808;28;20451;-64
2023/10/21 21:13:57;;;;;;;6.68;2.95;;;;;;;;;;4991082;28;20093;-63
2023/10/21 21:16:23;;;;;;;12.00;3.53;;;;;;;;;;4991101;28;20053;-63
2023/10/21 21:18:49;;;;;;;7.22;3.25;;;;;;;;;;4991164;28;20471;-73
2023/10/21 21:21:14;;;;;;;9.18;2.90;;;;;;;;;;4991751;28;20036;-63
2023/10/21 21:23:40;;;;;;;8.25;2.72;;;;;;;;;;4994012;28;20391;-69
2023/10/21 21:26:07;;;;;;;9.85;3.22;;;;;;;;;;4993839;28;20026;-76
2023/10/21 21:28:34;;;;;;;9.02;2.67;;;;;;;;;;4991696;28;20490;-64
2023/10/21 21:30:59;;;;;;;15.63;3.47;;;;;;;;;;4991006;28;20039;-63
2023/10/21 21:33:25;;;;;;;13.25;3.38;;;;;;;;;;4993504;28;20032;-72
2023/10/21 21:36:03;;;;;;;13.00;3.17;;;;;;;;;;4993308;28;20113;-71
2023/10/21 21:38:30;;;;;;;13.55;4.10;;;;;;;;;;4994693;28;20053;-61
2023/10/21 21:41:08;;;;;;;8.27;2.90;;;;;;;;;;4994390;28;20031;-62
2023/10/21 21:43:34;;;;;;;11.80;3.00;;;;;;;;;;4994418;28;20708;-62
2023/10/21 21:45:59;;;;;;;6.43;2.95;;;;;;;;;;4994716;28;20085;-62
2023/10/21 21:48:25;;;;;;;12.85;3.08;;;;;;;;;;4994121;28;20037;-61
2023/10/21 21:50:50;;;;;;;14.48;3.25;;;;;;;;;;4995224;28;20055;-62
2023/10/21 21:53:16;;;;;;;10.48;2.88;;;;;;;;;;4994863;28;20046;-69
2023/10/21 21:55:45;;;;;;;7.88;2.70;;;;;;;;;;4994884;28;20022;-76
2023/10/21 21:58:11;;;;;;;10.80;2.88;;;;;;;;;;4994502;28;20026;-76
2023/10/21 22:00:57;;;;;;;8.35;3.08;;;;;;;;;;4994290;28;20037;-62
2023/10/21 22:03:22;;;;;;;10.23;2.72;;;;;;;;;;4992502;28;20049;-62
2023/10/21 22:05:52;;;;;;;10.73;2.95;;;;;;;;;;4993513;28;20022;-62
2023/10/21 22:08:18;;;;;;;8.68;3.17;;;;;;;;;;4993855;28;20486;-65
2023/10/21 22:10:44;;;;;;;8.65;2.60;;;;;;;;;;4993760;28;20061;-63
2023/10/21 22:13:10;;;;;;;9.05;2.67;;;;;;;;;;4993587;28;20030;-62
2023/10/21 22:15:36;;;;;;;8.57;2.75;;;;;;;;;;4991141;28;20040;-62
2023/10/21 22:18:02;;;;;;;6.88;2.70;;;;;;;;;;4994143;28;20034;-70
2023/10/21 22:20:28;;;;;;;8.05;3.00;;;;;;;;;;4993694;28;20058;-74
2023/10/21 22:22:54;;;;;;;9.20;3.38;;;;;;;;;;4994277;28;20027;-64
2023/10/21 22:25:38;;;;;;;8.85;2.80;;;;;;;;;;4994135;28;20130;-62
2023/10/21 22:28:12;;;;;;;8.98;3.00;;;;;;;;;;4994020;28;20110;-64
2023/10/21 22:30:40;;;;;;;8.23;3.30;;;;;;;;;;4993593;28;20030;-63
2023/10/21 22:33:06;;;;;;;8.27;2.70;;;;;;;;;;4993487;28;20061;-68
2023/10/21 22:35:31;;;;;;;11.52;2.88;;;;;;;;;;4993575;28;20062;-63
2023/10/21 22:37:57;;;;;;;7.10;3.30;;;;;;;;;;4992058;28;20422;-64
2023/10/21 22:40:23;;;;;;;10.40;3.17;;;;;;;;;;4993402;28;20155;-64
2023/10/21 22:42:48;;;;;;;8.35;3.20;;;;;;;;;;4993156;28;20023;-64
2023/10/21 22:45:16;;;;;;;15.90;3.75;;;;;;;;;;4993299;28;20101;-64
2023/10/21 22:47:43;;;;;;;18.75;3.40;;;;;;;;;;4993180;28;20045;-64
2023/10/21 22:50:09;;;;;;;17.50;3.85;;;;;;;;;;4991616;28;20058;-72
2023/10/21 22:52:37;;;;;;;16.02;3.15;;;;;;;;;;4993320;28;20495;-63
2023/10/21 22:55:04;;;;;;;16.38;3.50;;;;;;;;;;4993029;28;20407;-64
2023/10/21 22:57:30;;;;;;;10.55;3.05;;;;;;;;;;4993152;28;20030;-71
2023/10/21 22:59:55;;;;;;;12.40;3.63;;;;;;;;;;4993138;28;20121;-64
2023/10/21 23:02:25;;;;;;;18.30;3.97;;;;;;;;;;4993106;28;20040;-64
2023/10/21 23:04:54;;;;;;;13.82;3.47;;;;;;;;;;4992956;28;20026;-63
2023/10/21 23:07:20;;;;;;;12.37;3.40;;;;;;;;;;4992835;28;20514;-65
2023/10/21 23:09:51;;;;;;;11.32;3.38;;;;;;;;;;4992976;28;20280;-64
2023/10/21 23:12:17;;;;;;;10.10;3.17;;;;;;;;;;4992854;28;20036;-64
2023/10/21 23:14:46;;;;;;;9.45;3.47;;;;;;;;;;4992679;28;20022;-65
2023/10/21 23:17:13;;;;;;;9.57;3.88;;;;;;;;;;4992532;28;20061;-64
2023/10/21 23:19:42;;;;;;;9.23;3.40;;;;;;;;;;4992568;28;20034;-64
2023/10/21 23:22:09;;;;;;;6.65;3.40;;;;;;;;;;4992255;28;20026;-64
2023/10/21 23:24:39;;;;;;;27.92;4.85;;;;;;;;;;4992584;28;20487;-64
2023/10/21 23:27:05;;;;;;;22.88;5.43;;;;;;;;;;4992308;28;20077;-64
2023/10/21 23:29:31;;;;;;;14.48;3.85;;;;;;;;;;4992169;28;20041;-64
2023/10/21 23:31:57;;;;;;;14.55;3.58;;;;;;;;;;4990729;28;20538;-67
2023/10/21 23:34:22;;;;;;;53.58;6.65;;;;;;;;;;4992438;28;20030;-74
2023/10/21 23:36:48;;;;;;;42.38;5.55;;;;;;;;;;4992412;28;20065;-65
2023/10/21 23:39:15;;;;;;;23.35;4.10;;;;;;;;;;4992145;28;20501;-64
2023/10/21 23:41:41;;;;;;;20.00;5.28;;;;;;;;;;4992228;28;20480;-73
2023/10/21 23:44:06;;;;;;;29.85;4.45;;;;;;;;;;4992013;28;20042;-73
2023/10/21 23:46:32;;;;;;;19.27;4.68;;;;;;;;;;4992336;28;20429;-65
2023/10/21 23:48:57;;;;;;;18.85;4.10;;;;;;;;;;4991838;28;20424;-65
2023/10/21 23:51:23;;;;;;;18.65;4.07;;;;;;;;;;4991222;28;20029;-65
2023/10/21 23:53:49;;;;;;;16.08;4.15;;;;;;;;;;4991018;28;20041;-64
2023/10/21 23:56:14;;;;;;;11.88;4.38;;;;;;;;;;4991909;28;20026;-65
2023/10/21 23:58:40;;;;;;;14.52;4.15;;;;;;;;;;4992217;28;20391;-73
